JES3104 SABE-SAAR
Flight info
| Callsign | JES3104 |
|---|---|
| Flight time | 1h 1m |
| Altitude | 24000 |
| Route | ATOVO4B ATOVO W5 ESKON |
| Aircraft | A320/M-SDE3FGHIRWY/LB1 |
Departure
| Time | 2026-04-26 22:20 |
|---|---|
| Airport | Aeroparque Jorge Newbery (SABE) |
Arrival
| Time | 2026-04-26 23:22 |
|---|---|
| Airport | Rosario Islas Malvinas International Airport (SAAR) |
| Time | Latitude | Longitude | Altitude | Speed | Heading |
|---|---|---|---|---|---|
| 2026-04-26 21:55 | -34.55742 | -58.41364 | 27 ft | 0 kts | 34° |
| 2026-04-26 22:10 | -34.55745 | -58.41366 | 27 ft | 2 kts | 34° |
| 2026-04-26 22:11 | -34.55758 | -58.41378 | 4 ft | 2 kts | 28° |
| 2026-04-26 22:11 | -34.55774 | -58.41380 | 37 ft | 2 kts | 328° |
| 2026-04-26 22:11 | -34.55787 | -58.41367 | 27 ft | 2 kts | 311° |
| 2026-04-26 22:11 | -34.55796 | -58.41355 | 27 ft | 1 kts | 304° |
| 2026-04-26 22:12 | -34.55797 | -58.41352 | 27 ft | 0 kts | 303° |
| 2026-04-26 22:13 | -34.55794 | -58.41358 | 27 ft | 2 kts | 304° |
| 2026-04-26 22:14 | -34.55779 | -58.41385 | 27 ft | 5 kts | 301° |
| 2026-04-26 22:14 | -34.55754 | -58.41435 | 27 ft | 9 kts | 300° |
| 2026-04-26 22:14 | -34.55727 | -58.41498 | 27 ft | 7 kts | 288° |
| 2026-04-26 22:14 | -34.55735 | -58.41550 | 27 ft | 8 kts | 234° |
| 2026-04-26 22:15 | -34.55788 | -58.41582 | 27 ft | 10 kts | 179° |
| 2026-04-26 22:15 | -34.55835 | -58.41510 | 27 ft | 13 kts | 117° |
| 2026-04-26 22:15 | -34.55879 | -58.41408 | 27 ft | 15 kts | 117° |
| 2026-04-26 22:15 | -34.55927 | -58.41294 | 27 ft | 13 kts | 121° |
| 2026-04-26 22:16 | -34.55977 | -58.41209 | 27 ft | 13 kts | 126° |
| 2026-04-26 22:16 | -34.56036 | -58.41114 | 27 ft | 14 kts | 127° |
| 2026-04-26 22:16 | -34.56092 | -58.41024 | 27 ft | 15 kts | 127° |
| 2026-04-26 22:16 | -34.56149 | -58.40929 | 27 ft | 11 kts | 120° |
| 2026-04-26 22:17 | -34.56160 | -58.40838 | 27 ft | 11 kts | 109° |
| 2026-04-26 22:17 | -34.56210 | -58.40752 | 27 ft | 14 kts | 124° |
| 2026-04-26 22:17 | -34.56263 | -58.40654 | 27 ft | 11 kts | 124° |
| 2026-04-26 22:17 | -34.56310 | -58.40571 | 27 ft | 13 kts | 124° |
| 2026-04-26 22:18 | -34.56353 | -58.40508 | 27 ft | 10 kts | 136° |
| 2026-04-26 22:18 | -34.56409 | -58.40449 | 27 ft | 10 kts | 140° |
| 2026-04-26 22:18 | -34.56463 | -58.40392 | 27 ft | 7 kts | 138° |
| 2026-04-26 22:18 | -34.56515 | -58.40361 | 26 ft | 10 kts | 184° |
| 2026-04-26 22:19 | -34.56561 | -58.40431 | 27 ft | 13 kts | 282° |
| 2026-04-26 22:19 | -34.56539 | -58.40470 | 26 ft | 0 kts | 306° |
| 2026-04-26 22:19 | -34.56536 | -58.40476 | 26 ft | 4 kts | 305° |
| 2026-04-26 22:20 | -34.56393 | -58.40732 | 30 ft | 73 kts | 304° |
| 2026-04-26 22:20 | -34.56152 | -58.41164 | 28 ft | 111 kts | 304° |
| 2026-04-26 22:20 | -34.55421 | -58.42435 | 290 ft | 147 kts | 305° |
| 2026-04-26 22:20 | -34.54865 | -58.43477 | 888 ft | 149 kts | 301° |
| 2026-04-26 22:21 | -34.54229 | -58.44495 | 1444 ft | 161 kts | 311° |
| 2026-04-26 22:21 | -34.53310 | -58.45444 | 1760 ft | 189 kts | 318° |
| 2026-04-26 22:21 | -34.52025 | -58.46192 | 2097 ft | 222 kts | 336° |
| 2026-04-26 22:21 | -34.50384 | -58.46484 | 2550 ft | 256 kts | 355° |
| 2026-04-26 22:22 | -34.48551 | -58.46042 | 3196 ft | 281 kts | 19° |
| 2026-04-26 22:22 | -34.46825 | -58.44858 | 4153 ft | 288 kts | 30° |
| 2026-04-26 22:22 | -34.45118 | -58.43560 | 5113 ft | 292 kts | 30° |
| 2026-04-26 22:22 | -34.43373 | -58.42249 | 6032 ft | 298 kts | 30° |
| 2026-04-26 22:23 | -34.41593 | -58.40922 | 6910 ft | 303 kts | 29° |
| 2026-04-26 22:23 | -34.39786 | -58.39587 | 7808 ft | 305 kts | 26° |
| 2026-04-26 22:23 | -34.37810 | -58.38668 | 8692 ft | 303 kts | 7° |
| 2026-04-26 22:23 | -34.35759 | -58.38489 | 9597 ft | 298 kts | 349° |
| 2026-04-26 22:24 | -34.33756 | -58.39014 | 10355 ft | 297 kts | 333° |
| 2026-04-26 22:24 | -34.31903 | -58.40226 | 10621 ft | 312 kts | 319° |
| 2026-04-26 22:24 | -34.30064 | -58.41795 | 10823 ft | 335 kts | 319° |
| 2026-04-26 22:24 | -34.28102 | -58.43458 | 11250 ft | 348 kts | 319° |
| 2026-04-26 22:25 | -34.26109 | -58.45122 | 11931 ft | 352 kts | 319° |
| 2026-04-26 22:25 | -34.24060 | -58.46813 | 12695 ft | 355 kts | 319° |
| 2026-04-26 22:25 | -34.22034 | -58.48480 | 13457 ft | 357 kts | 319° |
| 2026-04-26 22:25 | -34.19957 | -58.50186 | 14174 ft | 359 kts | 318° |
| 2026-04-26 22:26 | -34.17897 | -58.51878 | 14875 ft | 359 kts | 317° |
| 2026-04-26 22:26 | -34.15924 | -58.53654 | 15554 ft | 352 kts | 308° |
| 2026-04-26 22:26 | -34.14313 | -58.55829 | 16226 ft | 347 kts | 303° |
| 2026-04-26 22:26 | -34.12552 | -58.57876 | 16916 ft | 354 kts | 309° |
| 2026-04-26 22:27 | -34.10694 | -58.59840 | 17605 ft | 356 kts | 309° |
| 2026-04-26 22:27 | -34.08807 | -58.61801 | 18293 ft | 357 kts | 309° |
| 2026-04-26 22:27 | -34.06900 | -58.63764 | 18900 ft | 359 kts | 309° |
| 2026-04-26 22:27 | -34.05017 | -58.65706 | 19487 ft | 361 kts | 309° |
| 2026-04-26 22:28 | -34.03107 | -58.67685 | 20047 ft | 363 kts | 309° |
| 2026-04-26 22:28 | -34.01191 | -58.69683 | 20598 ft | 365 kts | 309° |
| 2026-04-26 22:28 | -33.99268 | -58.71694 | 21132 ft | 367 kts | 309° |
| 2026-04-26 22:28 | -33.97336 | -58.73724 | 21625 ft | 370 kts | 309° |
| 2026-04-26 22:29 | -33.95426 | -58.75812 | 22119 ft | 367 kts | 304° |
| 2026-04-26 22:29 | -33.94012 | -58.78266 | 22585 ft | 356 kts | 289° |
| 2026-04-26 22:29 | -33.93296 | -58.81099 | 23056 ft | 350 kts | 275° |
| 2026-04-26 22:29 | -33.93336 | -58.84002 | 23519 ft | 351 kts | 261° |
| 2026-04-26 22:30 | -33.94114 | -58.86814 | 23872 ft | 358 kts | 248° |
| 2026-04-26 22:30 | -33.95236 | -58.89496 | 23972 ft | 361 kts | 248° |
| 2026-04-26 22:30 | -33.96027 | -58.92358 | 24004 ft | 368 kts | 262° |
| 2026-04-26 22:30 | -33.95990 | -58.95456 | 23988 ft | 375 kts | 278° |
| 2026-04-26 22:31 | -33.95464 | -58.97498 | 24001 ft | 381 kts | 288° |
| 2026-04-26 22:31 | -33.94072 | -59.01377 | 23989 ft | 382 kts | 289° |
| 2026-04-26 22:31 | -33.93356 | -59.03333 | 23993 ft | 383 kts | 289° |
| 2026-04-26 22:31 | -33.91918 | -59.07239 | 24003 ft | 383 kts | 289° |
| 2026-04-26 22:32 | -33.91202 | -59.09184 | 23996 ft | 383 kts | 289° |
| 2026-04-26 22:32 | -33.90124 | -59.12124 | 23995 ft | 384 kts | 289° |
| 2026-04-26 22:32 | -33.89050 | -59.15068 | 24001 ft | 384 kts | 289° |
| 2026-04-26 22:32 | -33.87976 | -59.18022 | 24006 ft | 384 kts | 289° |
| 2026-04-26 22:33 | -33.86909 | -59.20955 | 24001 ft | 385 kts | 289° |
| 2026-04-26 22:33 | -33.84748 | -59.26872 | 24000 ft | 385 kts | 289° |
| 2026-04-26 22:33 | -33.83681 | -59.29795 | 24000 ft | 385 kts | 289° |
| 2026-04-26 22:34 | -33.82604 | -59.32738 | 23997 ft | 385 kts | 289° |
| 2026-04-26 22:34 | -33.81527 | -59.35679 | 24005 ft | 385 kts | 289° |
| 2026-04-26 22:34 | -33.80446 | -59.38619 | 24000 ft | 385 kts | 289° |
| 2026-04-26 22:34 | -33.79366 | -59.41567 | 24004 ft | 385 kts | 289° |
| 2026-04-26 22:35 | -33.78287 | -59.44512 | 24005 ft | 385 kts | 289° |
| 2026-04-26 22:35 | -33.77205 | -59.47457 | 23998 ft | 385 kts | 289° |
| 2026-04-26 22:35 | -33.76119 | -59.50404 | 23995 ft | 386 kts | 289° |
| 2026-04-26 22:35 | -33.75033 | -59.53353 | 24002 ft | 386 kts | 289° |
| 2026-04-26 22:36 | -33.73944 | -59.56303 | 23996 ft | 387 kts | 289° |
| 2026-04-26 22:36 | -33.72850 | -59.59265 | 23997 ft | 387 kts | 289° |
| 2026-04-26 22:36 | -33.71751 | -59.62233 | 24006 ft | 388 kts | 289° |
| 2026-04-26 22:36 | -33.70639 | -59.65187 | 24002 ft | 390 kts | 292° |
| 2026-04-26 22:37 | -33.69214 | -59.67948 | 24002 ft | 397 kts | 301° |
| 2026-04-26 22:37 | -33.67425 | -59.70528 | 24003 ft | 400 kts | 304° |
| 2026-04-26 22:37 | -33.65637 | -59.73056 | 24009 ft | 401 kts | 304° |
| 2026-04-26 22:37 | -33.63837 | -59.75596 | 24009 ft | 401 kts | 304° |
| 2026-04-26 22:38 | -33.62029 | -59.78148 | 24013 ft | 402 kts | 304° |
| 2026-04-26 22:38 | -33.60221 | -59.80704 | 24018 ft | 402 kts | 304° |
| 2026-04-26 22:38 | -33.58413 | -59.83264 | 24022 ft | 402 kts | 304° |
| 2026-04-26 22:38 | -33.56607 | -59.85825 | 24019 ft | 403 kts | 303° |
| 2026-04-26 22:39 | -33.54788 | -59.88407 | 23806 ft | 406 kts | 304° |
| 2026-04-26 22:39 | -33.52962 | -59.90990 | 23564 ft | 406 kts | 304° |
| 2026-04-26 22:39 | -33.51134 | -59.93570 | 23288 ft | 405 kts | 304° |
| 2026-04-26 22:39 | -33.49307 | -59.96149 | 23010 ft | 404 kts | 304° |
| 2026-04-26 22:40 | -33.47507 | -59.98684 | 22739 ft | 403 kts | 304° |
| 2026-04-26 22:40 | -33.45689 | -60.01239 | 22473 ft | 403 kts | 304° |
| 2026-04-26 22:40 | -33.43875 | -60.03789 | 22203 ft | 402 kts | 304° |
| 2026-04-26 22:40 | -33.42065 | -60.06332 | 21912 ft | 400 kts | 304° |
| 2026-04-26 22:41 | -33.40270 | -60.08848 | 21195 ft | 394 kts | 304° |
| 2026-04-26 22:41 | -33.38505 | -60.11323 | 20479 ft | 388 kts | 304° |
| 2026-04-26 22:41 | -33.36767 | -60.13762 | 19782 ft | 383 kts | 304° |
| 2026-04-26 22:41 | -33.35051 | -60.16167 | 19088 ft | 379 kts | 304° |
| 2026-04-26 22:42 | -33.33346 | -60.18559 | 18405 ft | 376 kts | 304° |
| 2026-04-26 22:42 | -33.31665 | -60.20918 | 17677 ft | 373 kts | 304° |
| 2026-04-26 22:42 | -33.29984 | -60.23273 | 17033 ft | 369 kts | 304° |
| 2026-04-26 22:42 | -33.28320 | -60.25597 | 16421 ft | 364 kts | 304° |
| 2026-04-26 22:43 | -33.26696 | -60.27862 | 15839 ft | 360 kts | 304° |
| 2026-04-26 22:43 | -33.25064 | -60.30136 | 15244 ft | 356 kts | 304° |
| 2026-04-26 22:43 | -33.23344 | -60.32293 | 14619 ft | 358 kts | 312° |
| 2026-04-26 22:43 | -33.21347 | -60.34033 | 13979 ft | 364 kts | 323° |
| 2026-04-26 22:44 | -33.19120 | -60.35491 | 13277 ft | 364 kts | 325° |
| 2026-04-26 22:44 | -33.16905 | -60.36923 | 12592 ft | 361 kts | 325° |
| 2026-04-26 22:44 | -33.14703 | -60.38349 | 11896 ft | 360 kts | 326° |
| 2026-04-26 22:44 | -33.12508 | -60.39775 | 11245 ft | 358 kts | 326° |
| 2026-04-26 22:45 | -33.10366 | -60.41160 | 11073 ft | 342 kts | 326° |
| 2026-04-26 22:45 | -33.08323 | -60.42476 | 10948 ft | 326 kts | 326° |
| 2026-04-26 22:45 | -33.06366 | -60.43737 | 10824 ft | 313 kts | 326° |
| 2026-04-26 22:45 | -33.04487 | -60.44952 | 10705 ft | 302 kts | 325° |
| 2026-04-26 22:46 | -33.02678 | -60.46127 | 10577 ft | 291 kts | 325° |
| 2026-04-26 22:46 | -33.00921 | -60.47271 | 10339 ft | 286 kts | 325° |
| 2026-04-26 22:46 | -32.99187 | -60.48400 | 10106 ft | 282 kts | 325° |
| 2026-04-26 22:46 | -32.97470 | -60.49519 | 9956 ft | 281 kts | 325° |
| 2026-04-26 22:47 | -32.95753 | -60.50637 | 9822 ft | 282 kts | 326° |
| 2026-04-26 22:47 | -32.94027 | -60.51759 | 9690 ft | 282 kts | 326° |
| 2026-04-26 22:47 | -32.92315 | -60.52870 | 9451 ft | 283 kts | 326° |
| 2026-04-26 22:47 | -32.90571 | -60.53999 | 8974 ft | 287 kts | 327° |
| 2026-04-26 22:48 | -32.88828 | -60.55122 | 8567 ft | 287 kts | 327° |
| 2026-04-26 22:48 | -32.87072 | -60.56254 | 8261 ft | 284 kts | 327° |
| 2026-04-26 22:48 | -32.85337 | -60.57374 | 7916 ft | 283 kts | 328° |
| 2026-04-26 22:48 | -32.83618 | -60.58482 | 7395 ft | 280 kts | 328° |
| 2026-04-26 22:49 | -32.81909 | -60.59586 | 6774 ft | 279 kts | 329° |
| 2026-04-26 22:49 | -32.80209 | -60.60682 | 6314 ft | 272 kts | 329° |
| 2026-04-26 22:49 | -32.78604 | -60.61712 | 6185 ft | 253 kts | 329° |
| 2026-04-26 22:49 | -32.77086 | -60.62686 | 6056 ft | 246 kts | 329° |
| 2026-04-26 22:50 | -32.75602 | -60.63640 | 5933 ft | 244 kts | 329° |
| 2026-04-26 22:50 | -32.74109 | -60.64599 | 5805 ft | 244 kts | 329° |
| 2026-04-26 22:50 | -32.72616 | -60.65546 | 5677 ft | 244 kts | 333° |
| 2026-04-26 22:50 | -32.70967 | -60.65980 | 5546 ft | 246 kts | 1° |
| 2026-04-26 22:51 | -32.69325 | -60.65449 | 5420 ft | 247 kts | 30° |
| 2026-04-26 22:51 | -32.68086 | -60.64061 | 5312 ft | 247 kts | 59° |
| 2026-04-26 22:51 | -32.67538 | -60.62162 | 5261 ft | 245 kts | 88° |
| 2026-04-26 22:51 | -32.67650 | -60.60150 | 5270 ft | 245 kts | 99° |
| 2026-04-26 22:52 | -32.67890 | -60.58141 | 5265 ft | 245 kts | 100° |
| 2026-04-26 22:52 | -32.68149 | -60.56151 | 5266 ft | 245 kts | 100° |
| 2026-04-26 22:52 | -32.68607 | -60.54224 | 5262 ft | 242 kts | 121° |
| 2026-04-26 22:52 | -32.69732 | -60.52763 | 5271 ft | 239 kts | 149° |
| 2026-04-26 22:53 | -32.71258 | -60.52112 | 5269 ft | 236 kts | 177° |
| 2026-04-26 22:53 | -32.72853 | -60.52365 | 5265 ft | 234 kts | 203° |
| 2026-04-26 22:53 | -32.74182 | -60.53471 | 5265 ft | 233 kts | 230° |
| 2026-04-26 22:53 | -32.74923 | -60.55175 | 5271 ft | 234 kts | 257° |
| 2026-04-26 22:54 | -32.74958 | -60.57100 | 5269 ft | 236 kts | 276° |
| 2026-04-26 22:54 | -32.74742 | -60.59006 | 5270 ft | 237 kts | 277° |
| 2026-04-26 22:54 | -32.74494 | -60.60940 | 5269 ft | 237 kts | 278° |
| 2026-04-26 22:54 | -32.74239 | -60.62873 | 5273 ft | 237 kts | 278° |
| 2026-04-26 22:55 | -32.73982 | -60.64803 | 5269 ft | 237 kts | 281° |
| 2026-04-26 22:55 | -32.73299 | -60.66570 | 5271 ft | 239 kts | 309° |
| 2026-04-26 22:55 | -32.71958 | -60.67714 | 5274 ft | 241 kts | 339° |
| 2026-04-26 22:55 | -32.70297 | -60.67916 | 5275 ft | 244 kts | 10° |
| 2026-04-26 22:56 | -32.68769 | -60.67087 | 5273 ft | 244 kts | 41° |
| 2026-04-26 22:56 | -32.67803 | -60.65455 | 5272 ft | 244 kts | 72° |
| 2026-04-26 22:56 | -32.67646 | -60.63479 | 5276 ft | 243 kts | 98° |
| 2026-04-26 22:56 | -32.67886 | -60.61491 | 5272 ft | 244 kts | 99° |
| 2026-04-26 22:57 | -32.68140 | -60.59500 | 5274 ft | 244 kts | 99° |
| 2026-04-26 22:57 | -32.68413 | -60.57519 | 5233 ft | 242 kts | 105° |
| 2026-04-26 22:57 | -32.69120 | -60.55775 | 5098 ft | 230 kts | 131° |
| 2026-04-26 22:57 | -32.70322 | -60.54617 | 4973 ft | 219 kts | 156° |
| 2026-04-26 22:58 | -32.71766 | -60.54166 | 4855 ft | 214 kts | 179° |
| 2026-04-26 22:58 | -32.73222 | -60.54440 | 4723 ft | 212 kts | 202° |
| 2026-04-26 22:58 | -32.74456 | -60.55378 | 4598 ft | 212 kts | 226° |
| 2026-04-26 22:58 | -32.75282 | -60.56812 | 4464 ft | 212 kts | 248° |
| 2026-04-26 22:59 | -32.75565 | -60.58517 | 4346 ft | 212 kts | 271° |
| 2026-04-26 22:59 | -32.75266 | -60.60230 | 4221 ft | 214 kts | 289° |
| 2026-04-26 22:59 | -32.74792 | -60.61907 | 4048 ft | 215 kts | 283° |
| 2026-04-26 22:59 | -32.74454 | -60.63621 | 3903 ft | 213 kts | 281° |
| 2026-04-26 23:00 | -32.74152 | -60.65345 | 3850 ft | 214 kts | 281° |
| 2026-04-26 23:00 | -32.73860 | -60.67076 | 3798 ft | 215 kts | 280° |
| 2026-04-26 23:00 | -32.73570 | -60.68815 | 3754 ft | 214 kts | 280° |
| 2026-04-26 23:00 | -32.73368 | -60.70579 | 3430 ft | 219 kts | 266° |
| 2026-04-26 23:01 | -32.73651 | -60.72266 | 3213 ft | 205 kts | 246° |
| 2026-04-26 23:01 | -32.74369 | -60.73699 | 3050 ft | 196 kts | 228° |
| 2026-04-26 23:01 | -32.75390 | -60.74743 | 2877 ft | 191 kts | 210° |
| 2026-04-26 23:01 | -32.76558 | -60.75326 | 2674 ft | 180 kts | 193° |
| 2026-04-26 23:02 | -32.77746 | -60.75600 | 2440 ft | 168 kts | 191° |
| 2026-04-26 23:02 | -32.78850 | -60.75851 | 2245 ft | 153 kts | 191° |
| 2026-04-26 23:02 | -32.79845 | -60.76077 | 2039 ft | 141 kts | 191° |
| 2026-04-26 23:02 | -32.80789 | -60.76291 | 1857 ft | 136 kts | 191° |
| 2026-04-26 23:03 | -32.81715 | -60.76502 | 1680 ft | 135 kts | 191° |
| 2026-04-26 23:03 | -32.82635 | -60.76711 | 1497 ft | 134 kts | 191° |
| 2026-04-26 23:03 | -32.83552 | -60.76919 | 1321 ft | 134 kts | 192° |
| 2026-04-26 23:03 | -32.84467 | -60.77127 | 1137 ft | 134 kts | 191° |
| 2026-04-26 23:04 | -32.85380 | -60.77334 | 910 ft | 132 kts | 193° |
| 2026-04-26 23:04 | -32.86271 | -60.77537 | 710 ft | 129 kts | 193° |
| 2026-04-26 23:04 | -32.87141 | -60.77735 | 495 ft | 126 kts | 194° |
| 2026-04-26 23:04 | -32.88005 | -60.77933 | 327 ft | 124 kts | 194° |
| 2026-04-26 23:05 | -32.88841 | -60.78126 | 177 ft | 124 kts | 194° |
| 2026-04-26 23:05 | -32.89673 | -60.78311 | 100 ft | 112 kts | 192° |
| 2026-04-26 23:05 | -32.90467 | -60.78498 | 106 ft | 138 kts | 193° |
| 2026-04-26 23:05 | -32.91414 | -60.78717 | 812 ft | 138 kts | 192° |
| 2026-04-26 23:06 | -32.92369 | -60.78971 | 1522 ft | 147 kts | 192° |
| 2026-04-26 23:06 | -32.93417 | -60.79283 | 1852 ft | 162 kts | 194° |
| 2026-04-26 23:06 | -32.94573 | -60.79622 | 1965 ft | 184 kts | 194° |
| 2026-04-26 23:06 | -32.95885 | -60.79998 | 2354 ft | 201 kts | 193° |
| 2026-04-26 23:07 | -32.97270 | -60.80403 | 2892 ft | 208 kts | 194° |
| 2026-04-26 23:07 | -32.98217 | -60.80681 | 2989 ft | 207 kts | 194° |
| 2026-04-26 23:07 | -33.00071 | -60.81221 | 3035 ft | 206 kts | 194° |
| 2026-04-26 23:07 | -33.01465 | -60.81627 | 3037 ft | 206 kts | 193° |
| 2026-04-26 23:08 | -33.02858 | -60.82033 | 3037 ft | 206 kts | 194° |
| 2026-04-26 23:08 | -33.04248 | -60.82437 | 3040 ft | 206 kts | 194° |
| 2026-04-26 23:08 | -33.05636 | -60.82839 | 3060 ft | 205 kts | 194° |
| 2026-04-26 23:08 | -33.07042 | -60.83093 | 3060 ft | 205 kts | 172° |
| 2026-04-26 23:09 | -33.08264 | -60.82287 | 3063 ft | 207 kts | 127° |
| 2026-04-26 23:09 | -33.08649 | -60.80660 | 3064 ft | 212 kts | 82° |
| 2026-04-26 23:09 | -33.07957 | -60.79143 | 3066 ft | 214 kts | 40° |
| 2026-04-26 23:09 | -33.06775 | -60.78048 | 3056 ft | 216 kts | 43° |
| 2026-04-26 23:10 | -33.05583 | -60.76965 | 3053 ft | 216 kts | 19° |
| 2026-04-26 23:10 | -33.04122 | -60.76954 | 3061 ft | 214 kts | 334° |
| 2026-04-26 23:10 | -33.03080 | -60.78132 | 3063 ft | 209 kts | 289° |
| 2026-04-26 23:10 | -33.03026 | -60.79806 | 3065 ft | 206 kts | 251° |
| 2026-04-26 23:11 | -33.03434 | -60.81444 | 3055 ft | 208 kts | 259° |
| 2026-04-26 23:11 | -33.03298 | -60.83149 | 3059 ft | 211 kts | 290° |
| 2026-04-26 23:11 | -33.02440 | -60.84536 | 2849 ft | 212 kts | 323° |
| 2026-04-26 23:11 | -33.01099 | -60.85136 | 2992 ft | 213 kts | 355° |
| 2026-04-26 23:12 | -32.99632 | -60.84834 | 3063 ft | 218 kts | 28° |
| 2026-04-26 23:12 | -32.98291 | -60.83817 | 3071 ft | 235 kts | 34° |
| 2026-04-26 23:12 | -32.96920 | -60.82726 | 3066 ft | 238 kts | 34° |
| 2026-04-26 23:12 | -32.95539 | -60.81629 | 3062 ft | 238 kts | 34° |
| 2026-04-26 23:13 | -32.94157 | -60.80535 | 3064 ft | 239 kts | 34° |
| 2026-04-26 23:13 | -32.92772 | -60.79443 | 3063 ft | 239 kts | 34° |
| 2026-04-26 23:13 | -32.91387 | -60.78350 | 3067 ft | 239 kts | 34° |
| 2026-04-26 23:13 | -32.90004 | -60.77258 | 3064 ft | 239 kts | 34° |
| 2026-04-26 23:14 | -32.88620 | -60.76168 | 3063 ft | 239 kts | 34° |
| 2026-04-26 23:14 | -32.87231 | -60.75076 | 3067 ft | 239 kts | 34° |
| 2026-04-26 23:14 | -32.85839 | -60.73986 | 3063 ft | 239 kts | 34° |
| 2026-04-26 23:14 | -32.84461 | -60.72906 | 2797 ft | 237 kts | 34° |
| 2026-04-26 23:15 | -32.83076 | -60.71819 | 2455 ft | 238 kts | 34° |
| 2026-04-26 23:15 | -32.81709 | -60.70747 | 2147 ft | 237 kts | 34° |
| 2026-04-26 23:15 | -32.80329 | -60.69665 | 2053 ft | 238 kts | 34° |
| 2026-04-26 23:15 | -32.78979 | -60.68608 | 2058 ft | 226 kts | 34° |
| 2026-04-26 23:16 | -32.77683 | -60.67594 | 2060 ft | 220 kts | 34° |
| 2026-04-26 23:16 | -32.76307 | -60.66839 | 2057 ft | 218 kts | 7° |
| 2026-04-26 23:16 | -32.74832 | -60.67049 | 2061 ft | 214 kts | 333° |
| 2026-04-26 23:16 | -32.74024 | -60.67708 | 2060 ft | 211 kts | 310° |
| 2026-04-26 23:17 | -32.73171 | -60.69711 | 2059 ft | 205 kts | 278° |
| 2026-04-26 23:17 | -32.73121 | -60.71378 | 2060 ft | 202 kts | 258° |
| 2026-04-26 23:17 | -32.73555 | -60.72939 | 2061 ft | 199 kts | 238° |
| 2026-04-26 23:17 | -32.74410 | -60.74211 | 2060 ft | 197 kts | 219° |
| 2026-04-26 23:18 | -32.75156 | -60.74821 | 2062 ft | 196 kts | 206° |
| 2026-04-26 23:18 | -32.76449 | -60.75310 | 2061 ft | 195 kts | 191° |
| 2026-04-26 23:18 | -32.77718 | -60.75596 | 2055 ft | 180 kts | 191° |
| 2026-04-26 23:18 | -32.78951 | -60.75874 | 2057 ft | 181 kts | 191° |
| 2026-04-26 23:19 | -32.80177 | -60.76152 | 1944 ft | 174 kts | 191° |
| 2026-04-26 23:19 | -32.81309 | -60.76408 | 1753 ft | 157 kts | 192° |
| 2026-04-26 23:19 | -32.82319 | -60.76638 | 1568 ft | 139 kts | 192° |
| 2026-04-26 23:19 | -32.83243 | -60.76848 | 1385 ft | 132 kts | 191° |
| 2026-04-26 23:20 | -32.84130 | -60.77050 | 1203 ft | 128 kts | 192° |
| 2026-04-26 23:20 | -32.85000 | -60.77248 | 1013 ft | 127 kts | 192° |
| 2026-04-26 23:20 | -32.85860 | -60.77443 | 808 ft | 126 kts | 193° |
| 2026-04-26 23:20 | -32.86716 | -60.77640 | 611 ft | 125 kts | 192° |
| 2026-04-26 23:21 | -32.87571 | -60.77837 | 418 ft | 125 kts | 192° |
| 2026-04-26 23:21 | -32.88423 | -60.78030 | 247 ft | 124 kts | 192° |
| 2026-04-26 23:21 | -32.89274 | -60.78225 | 109 ft | 122 kts | 193° |
| 2026-04-26 23:21 | -32.89999 | -60.78388 | 96 ft | 87 kts | 191° |
| 2026-04-26 23:22 | -32.90466 | -60.78493 | 97 ft | 47 kts | 190° |
| 2026-04-26 23:22 | -32.90685 | -60.78543 | 98 ft | 24 kts | 191° |
| 2026-04-26 23:22 | -32.90798 | -60.78567 | 99 ft | 16 kts | 186° |
| 2026-04-26 23:22 | -32.90914 | -60.78558 | 98 ft | 18 kts | 165° |
| 2026-04-26 23:23 | -32.90994 | -60.78524 | 98 ft | 13 kts | 155° |
| 2026-04-26 23:23 | -32.91073 | -60.78483 | 96 ft | 9 kts | 151° |
| 2026-04-26 23:23 | -32.91137 | -60.78432 | 96 ft | 12 kts | 144° |
| 2026-04-26 23:23 | -32.91208 | -60.78364 | 96 ft | 14 kts | 141° |
| 2026-04-26 23:24 | -32.91291 | -60.78285 | 95 ft | 16 kts | 141° |
| 2026-04-26 23:24 | -32.91369 | -60.78211 | 97 ft | 9 kts | 140° |
| 2026-04-26 23:24 | -32.91425 | -60.78168 | 95 ft | 9 kts | 167° |
| 2026-04-26 23:24 | -32.91479 | -60.78180 | 97 ft | 9 kts | 199° |
| 2026-04-26 23:25 | -32.91535 | -60.78205 | 97 ft | 8 kts | 201° |
| 2026-04-26 23:25 | -32.91570 | -60.78214 | 95 ft | 5 kts | 172° |
| 2026-04-26 23:25 | -32.91586 | -60.78183 | 95 ft | 5 kts | 107° |
| 2026-04-26 23:25 | -32.91599 | -60.78141 | 95 ft | 6 kts | 110° |
| 2026-04-26 23:26 | -32.91606 | -60.78118 | 98 ft | 0 kts | 110° |